sensor_id;sensor_type;location;lat;lon;timestamp;pressure;altitude;pressure_sealevel;temperature;humidity
45864;BME280;31579;52.354;16.974;2022-12-18T00:00:15;659.5;;;-146.1;100.0
45864;BME280;31579;52.354;16.974;2022-12-18T00:01:21;669.3;;;-146.1;100.0
45864;BME280;31579;52.354;16.974;2022-12-18T00:02:22;673.1;;;-146.1;100.0
45864;BME280;31579;52.354;16.974;2022-12-18T00:03:26;666.2;;;-146.1;100.0
45864;BME280;31579;52.354;16.974;2022-12-18T00:04:29;663.1;;;-146.1;100.0
45864;BME280;31579;52.354;16.974;2022-12-18T00:05:32;663.1;;;-146.1;100.0
45864;BME280;31579;52.354;16.974;2022-12-18T00:06:35;662.6;;;-146.1;100.0
45864;BME280;31579;52.354;16.974;2022-12-18T00:07:38;664.5;;;-146.1;100.0
45864;BME280;31579;52.354;16.974;2022-12-18T00:08:41;664.6;;;-146.1;100.0
45864;BME280;31579;52.354;16.974;2022-12-18T00:09:44;665.0;;;-146.1;100.0
45864;BME280;31579;52.354;16.974;2022-12-18T00:10:47;664.9;;;-146.1;100.0
45864;BME280;31579;52.354;16.974;2022-12-18T00:11:50;665.4;;;-146.1;100.0
45864;BME280;31579;52.354;16.974;2022-12-18T00:12:53;666.9;;;-146.1;100.0
45864;BME280;31579;52.354;16.974;2022-12-18T00:13:56;667.7;;;-146.1;100.0
45864;BME280;31579;52.354;16.974;2022-12-18T00:15:07;708.7;;;-146.1;100.0
45864;BME280;31579;52.354;16.974;2022-12-18T00:16:13;700.0;;;-146.1;100.0
45864;BME280;31579;52.354;16.974;2022-12-18T00:17:13;682.2;;;-146.1;100.0
45864;BME280;31579;52.354;16.974;2022-12-18T00:18:16;675.0;;;-146.1;100.0
45864;BME280;31579;52.354;16.974;2022-12-18T00:19:19;672.7;;;-146.1;100.0
45864;BME280;31579;52.354;16.974;2022-12-18T00:20:22;671.4;;;-146.1;100.0
45864;BME280;31579;52.354;16.974;2022-12-18T00:21:25;672.0;;;-146.1;100.0
45864;BME280;31579;52.354;16.974;2022-12-18T00:22:28;673.6;;;-146.1;100.0
45864;BME280;31579;52.354;16.974;2022-12-18T00:23:31;674.1;;;-146.1;100.0
45864;BME280;31579;52.354;16.974;2022-12-18T00:24:34;675.6;;;-146.1;100.0
45864;BME280;31579;52.354;16.974;2022-12-18T00:25:37;676.8;;;-146.1;100.0
45864;BME280;31579;52.354;16.974;2022-12-18T00:26:40;676.9;;;-146.1;100.0
45864;BME280;31579;52.354;16.974;2022-12-18T00:27:43;679.3;;;-146.1;100.0
45864;BME280;31579;52.354;16.974;2022-12-18T00:28:46;678.5;;;-146.1;100.0
45864;BME280;31579;52.354;16.974;2022-12-18T00:29:49;678.3;;;-146.1;100.0
45864;BME280;31579;52.354;16.974;2022-12-18T00:31:56;681.0;;;-146.1;100.0
45864;BME280;31579;52.354;16.974;2022-12-18T00:32:59;680.9;;;-146.1;100.0
45864;BME280;31579;52.354;16.974;2022-12-18T00:34:01;674.1;;;-146.1;100.0
45864;BME280;31579;52.354;16.974;2022-12-18T00:35:05;671.3;;;-146.1;100.0
45864;BME280;31579;52.354;16.974;2022-12-18T00:36:09;675.5;;;-146.1;100.0
45864;BME280;31579;52.354;16.974;2022-12-18T00:37:10;678.8;;;-146.1;100.0
45864;BME280;31579;52.354;16.974;2022-12-18T00:38:13;680.1;;;-146.1;100.0
45864;BME280;31579;52.354;16.974;2022-12-18T00:39:16;681.5;;;-146.1;100.0
45864;BME280;31579;52.354;16.974;2022-12-18T00:40:19;681.4;;;-146.1;100.0
45864;BME280;31579;52.354;16.974;2022-12-18T00:41:22;681.9;;;-146.1;100.0
45864;BME280;31579;52.354;16.974;2022-12-18T00:42:40;726.2;;;-146.1;100.0
45864;BME280;31579;52.354;16.974;2022-12-18T00:43:43;705.4;;;-146.1;100.0
45864;BME280;31579;52.354;16.974;2022-12-18T00:44:46;687.7;;;-146.1;100.0
45864;BME280;31579;52.354;16.974;2022-12-18T00:45:49;682.1;;;-146.1;100.0
45864;BME280;31579;52.354;16.974;2022-12-18T00:46:52;680.4;;;-146.1;100.0
45864;BME280;31579;52.354;16.974;2022-12-18T00:47:55;679.2;;;-146.1;100.0
45864;BME280;31579;52.354;16.974;2022-12-18T00:48:58;680.6;;;-146.1;100.0
45864;BME280;31579;52.354;16.974;2022-12-18T00:50:00;674.0;;;-146.1;100.0
45864;BME280;31579;52.354;16.974;2022-12-18T00:51:04;671.8;;;-146.1;100.0
45864;BME280;31579;52.354;16.974;2022-12-18T00:52:08;677.0;;;-146.1;100.0
45864;BME280;31579;52.354;16.974;2022-12-18T00:53:11;679.8;;;-146.1;100.0
45864;BME280;31579;52.354;16.974;2022-12-18T00:54:15;682.7;;;-146.1;100.0
45864;BME280;31579;52.354;16.974;2022-12-18T00:55:17;685.2;;;-146.1;100.0
45864;BME280;31579;52.354;16.974;2022-12-18T00:56:20;685.0;;;-146.1;100.0
45864;BME280;31579;52.354;16.974;2022-12-18T00:57:23;685.7;;;-146.1;100.0
45864;BME280;31579;52.354;16.974;2022-12-18T00:58:26;684.7;;;-146.1;100.0
45864;BME280;31579;52.354;16.974;2022-12-18T00:59:29;684.8;;;-146.1;100.0
45864;BME280;31579;52.354;16.974;2022-12-18T01:00:32;684.6;;;-146.1;100.0
45864;BME280;31579;52.354;16.974;2022-12-18T01:01:34;678.5;;;-146.1;100.0
45864;BME280;31579;52.354;16.974;2022-12-18T01:02:51;718.6;;;-146.1;100.0
45864;BME280;31579;52.354;16.974;2022-12-18T01:03:54;707.8;;;-146.1;100.0
45864;BME280;31579;52.354;16.974;2022-12-18T01:05:00;692.4;;;-146.1;100.0
45864;BME280;31579;52.354;16.974;2022-12-18T01:06:04;690.3;;;-146.1;100.0
45864;BME280;31579;52.354;16.974;2022-12-18T01:07:11;731.7;;;-146.1;100.0
45864;BME280;31579;52.354;16.974;2022-12-18T01:08:14;713.4;;;-146.1;100.0
45864;BME280;31579;52.354;16.974;2022-12-18T01:09:17;697.6;;;-146.1;100.0
45864;BME280;31579;52.354;16.974;2022-12-18T01:10:20;688.9;;;-146.1;100.0
45864;BME280;31579;52.354;16.974;2022-12-18T01:11:24;686.7;;;-146.1;100.0
45864;BME280;31579;52.354;16.974;2022-12-18T01:12:27;687.1;;;-146.1;100.0
45864;BME280;31579;52.354;16.974;2022-12-18T01:13:30;688.0;;;-146.1;100.0
45864;BME280;31579;52.354;16.974;2022-12-18T01:14:33;689.6;;;-146.1;100.0
45864;BME280;31579;52.354;16.974;2022-12-18T01:15:36;691.4;;;-146.1;100.0
45864;BME280;31579;52.354;16.974;2022-12-18T01:16:39;691.4;;;-146.1;100.0
45864;BME280;31579;52.354;16.974;2022-12-18T01:17:42;691.0;;;-146.1;100.0
45864;BME280;31579;52.354;16.974;2022-12-18T01:18:45;692.1;;;-146.1;100.0
45864;BME280;31579;52.354;16.974;2022-12-18T01:19:49;692.1;;;-146.1;100.0
45864;BME280;31579;52.354;16.974;2022-12-18T01:20:52;692.2;;;-146.1;100.0
45864;BME280;31579;52.354;16.974;2022-12-18T01:21:55;693.2;;;-146.1;100.0
45864;BME280;31579;52.354;16.974;2022-12-18T01:22:58;693.1;;;-146.1;100.0
45864;BME280;31579;52.354;16.974;2022-12-18T01:24:02;703.6;;;-146.1;100.0
45864;BME280;31579;52.354;16.974;2022-12-18T01:25:06;715.5;;;-146.1;100.0
45864;BME280;31579;52.354;16.974;2022-12-18T01:27:12;697.8;;;-146.1;100.0
45864;BME280;31579;52.354;16.974;2022-12-18T01:28:15;695.8;;;-146.1;100.0
45864;BME280;31579;52.354;16.974;2022-12-18T01:29:18;694.8;;;-146.1;100.0
45864;BME280;31579;52.354;16.974;2022-12-18T01:30:21;694.0;;;-146.1;100.0
45864;BME280;31579;52.354;16.974;2022-12-18T01:31:25;693.8;;;-146.1;100.0
45864;BME280;31579;52.354;16.974;2022-12-18T01:32:29;694.7;;;-146.1;100.0
45864;BME280;31579;52.354;16.974;2022-12-18T01:33:30;696.6;;;-146.1;100.0
45864;BME280;31579;52.354;16.974;2022-12-18T01:34:33;696.9;;;-146.1;100.0
45864;BME280;31579;52.354;16.974;2022-12-18T01:36:39;696.7;;;-146.1;100.0
45864;BME280;31579;52.354;16.974;2022-12-18T01:37:42;698.1;;;-146.1;100.0
45864;BME280;31579;52.354;16.974;2022-12-18T01:38:45;698.2;;;-146.1;100.0
45864;BME280;31579;52.354;16.974;2022-12-18T01:39:48;698.3;;;-146.1;100.0
45864;BME280;31579;52.354;16.974;2022-12-18T01:40:56;699.5;;;-146.1;100.0
45864;BME280;31579;52.354;16.974;2022-12-18T01:41:54;698.6;;;-146.1;100.0
45864;BME280;31579;52.354;16.974;2022-12-18T01:42:57;699.2;;;-146.1;100.0
45864;BME280;31579;52.354;16.974;2022-12-18T01:44:01;709.5;;;-146.1;100.0
45864;BME280;31579;52.354;16.974;2022-12-18T01:46:07;702.8;;;-146.1;100.0
45864;BME280;31579;52.354;16.974;2022-12-18T01:47:10;698.4;;;-146.1;100.0
45864;BME280;31579;52.354;16.974;2022-12-18T01:48:13;698.0;;;-146.1;100.0
45864;BME280;31579;52.354;16.974;2022-12-18T01:49:16;698.6;;;-146.1;100.0
45864;BME280;31579;52.354;16.974;2022-12-18T01:50:25;695.7;;;-146.1;100.0
45864;BME280;31579;52.354;16.974;2022-12-18T01:51:22;696.9;;;-146.1;100.0
45864;BME280;31579;52.354;16.974;2022-12-18T01:52:26;698.1;;;-146.1;100.0
45864;BME280;31579;52.354;16.974;2022-12-18T01:53:28;698.4;;;-146.1;100.0
45864;BME280;31579;52.354;16.974;2022-12-18T01:54:31;698.0;;;-146.1;100.0
45864;BME280;31579;52.354;16.974;2022-12-18T01:55:37;698.6;;;-146.1;100.0
45864;BME280;31579;52.354;16.974;2022-12-18T01:56:37;698.8;;;-146.1;100.0
45864;BME280;31579;52.354;16.974;2022-12-18T01:57:40;701.0;;;-146.1;100.0
45864;BME280;31579;52.354;16.974;2022-12-18T01:58:46;700.5;;;-146.1;100.0
45864;BME280;31579;52.354;16.974;2022-12-18T01:59:47;700.2;;;-146.1;100.0
45864;BME280;31579;52.354;16.974;2022-12-18T02:00:49;701.4;;;-146.1;100.0
45864;BME280;31579;52.354;16.974;2022-12-18T02:01:52;700.2;;;-146.1;100.0
45864;BME280;31579;52.354;16.974;2022-12-18T02:02:55;703.5;;;-146.1;100.0
45864;BME280;31579;52.354;16.974;2022-12-18T02:05:00;694.9;;;-146.1;100.0
45864;BME280;31579;52.354;16.974;2022-12-18T02:07:11;697.6;;;-146.1;100.0
45864;BME280;31579;52.354;16.974;2022-12-18T02:10:20;700.9;;;-146.1;100.0
45864;BME280;31579;52.354;16.974;2022-12-18T02:12:24;700.0;;;-146.1;100.0
45864;BME280;31579;52.354;16.974;2022-12-18T02:16:21;697.5;;;-146.1;100.0
45864;BME280;31579;52.354;16.974;2022-12-18T02:16:38;698.2;;;-146.1;100.0
45864;BME280;31579;52.354;16.974;2022-12-18T02:17:39;696.9;;;-146.1;100.0
45864;BME280;31579;52.354;16.974;2022-12-18T02:18:43;695.8;;;-146.1;100.0
45864;BME280;31579;52.354;16.974;2022-12-18T02:20:49;696.2;;;-146.1;100.0
45864;BME280;31579;52.354;16.974;2022-12-18T02:21:56;695.1;;;-146.1;100.0
45864;BME280;31579;52.354;16.974;2022-12-18T02:27:05;688.2;;;-146.1;100.0
45864;BME280;31579;52.354;16.974;2022-12-18T02:28:08;695.5;;;-146.1;100.0
45864;BME280;31579;52.354;16.974;2022-12-18T02:29:14;698.4;;;-146.1;100.0
45864;BME280;31579;52.354;16.974;2022-12-18T02:30:13;700.2;;;-146.1;100.0
45864;BME280;31579;52.354;16.974;2022-12-18T02:31:18;700.5;;;-146.1;100.0
45864;BME280;31579;52.354;16.974;2022-12-18T02:32:26;701.7;;;-146.1;100.0
45864;BME280;31579;52.354;16.974;2022-12-18T02:33:22;703.2;;;-146.1;100.0
45864;BME280;31579;52.354;16.974;2022-12-18T02:34:26;702.7;;;-146.1;100.0
45864;BME280;31579;52.354;16.974;2022-12-18T02:35:28;702.9;;;-146.1;100.0
45864;BME280;31579;52.354;16.974;2022-12-18T02:36:31;703.1;;;-146.1;100.0
45864;BME280;31579;52.354;16.974;2022-12-18T02:37:34;701.8;;;-146.1;100.0
45864;BME280;31579;52.354;16.974;2022-12-18T02:38:37;702.3;;;-146.1;100.0
45864;BME280;31579;52.354;16.974;2022-12-18T02:39:41;704.9;;;-146.1;100.0
45864;BME280;31579;52.354;16.974;2022-12-18T02:40:43;703.2;;;-146.1;100.0
45864;BME280;31579;52.354;16.974;2022-12-18T02:41:46;703.0;;;-146.1;100.0
45864;BME280;31579;52.354;16.974;2022-12-18T02:42:49;703.5;;;-146.1;100.0
45864;BME280;31579;52.354;16.974;2022-12-18T02:43:55;704.6;;;-146.1;100.0
45864;BME280;31579;52.354;16.974;2022-12-18T02:44:55;705.1;;;-146.1;100.0
45864;BME280;31579;52.354;16.974;2022-12-18T02:45:59;705.0;;;-146.1;100.0
45864;BME280;31579;52.354;16.974;2022-12-18T02:47:08;732.9;;;-146.1;100.0
45864;BME280;31579;52.354;16.974;2022-12-18T02:48:10;726.0;;;-146.1;100.0
45864;BME280;31579;52.354;16.974;2022-12-18T02:51:23;704.7;;;-146.1;100.0
45864;BME280;31579;52.354;16.974;2022-12-18T02:53:33;706.3;;;-146.1;100.0
45864;BME280;31579;52.354;16.974;2022-12-18T02:55:37;708.9;;;-146.1;100.0
45864;BME280;31579;52.354;16.974;2022-12-18T02:56:38;709.7;;;-146.1;100.0
45864;BME280;31579;52.354;16.974;2022-12-18T02:59:47;711.0;;;-146.1;100.0
45864;BME280;31579;52.354;16.974;2022-12-18T03:02:57;710.0;;;-146.1;100.0
45864;BME280;31579;52.354;16.974;2022-12-18T03:03:59;710.1;;;-146.1;100.0
45864;BME280;31579;52.354;16.974;2022-12-18T03:06:03;703.0;;;-146.1;100.0
45864;BME280;31579;52.354;16.974;2022-12-18T03:07:05;698.0;;;-146.1;100.0
45864;BME280;31579;52.354;16.974;2022-12-18T03:08:08;706.2;;;-146.1;100.0
45864;BME280;31579;52.354;16.974;2022-12-18T03:09:12;708.4;;;-146.1;100.0
45864;BME280;31579;52.354;16.974;2022-12-18T03:10:15;709.4;;;-146.1;100.0
45864;BME280;31579;52.354;16.974;2022-12-18T03:11:17;708.1;;;-146.1;100.0
45864;BME280;31579;52.354;16.974;2022-12-18T03:12:24;708.3;;;-146.1;100.0
45864;BME280;31579;52.354;16.974;2022-12-18T03:13:26;707.7;;;-146.1;100.0
45864;BME280;31579;52.354;16.974;2022-12-18T03:14:26;709.5;;;-146.1;100.0
45864;BME280;31579;52.354;16.974;2022-12-18T03:15:30;708.8;;;-146.1;100.0
45864;BME280;31579;52.354;16.974;2022-12-18T03:16:32;709.9;;;-146.1;100.0
45864;BME280;31579;52.354;16.974;2022-12-18T03:17:35;710.4;;;-146.1;100.0
45864;BME280;31579;52.354;16.974;2022-12-18T03:18:42;710.7;;;-146.1;100.0
45864;BME280;31579;52.354;16.974;2022-12-18T03:19:41;710.6;;;-146.1;100.0
45864;BME280;31579;52.354;16.974;2022-12-18T03:20:44;711.3;;;-146.1;100.0
45864;BME280;31579;52.354;16.974;2022-12-18T03:21:49;709.3;;;-146.1;100.0
45864;BME280;31579;52.354;16.974;2022-12-18T03:22:51;709.6;;;-146.1;100.0
45864;BME280;31579;52.354;16.974;2022-12-18T03:23:53;711.1;;;-146.1;100.0
45864;BME280;31579;52.354;16.974;2022-12-18T03:25:03;741.3;;;-146.1;100.0
45864;BME280;31579;52.354;16.974;2022-12-18T03:26:07;729.5;;;-146.1;100.0
45864;BME280;31579;52.354;16.974;2022-12-18T03:27:10;717.0;;;-146.1;100.0
45864;BME280;31579;52.354;16.974;2022-12-18T03:28:19;759.1;;;-146.1;100.0
45864;BME280;31579;52.354;16.974;2022-12-18T03:30:25;719.8;;;-146.1;100.0
45864;BME280;31579;52.354;16.974;2022-12-18T03:31:28;713.7;;;-146.1;100.0
45864;BME280;31579;52.354;16.974;2022-12-18T03:32:31;713.2;;;-146.1;100.0
45864;BME280;31579;52.354;16.974;2022-12-18T03:34:37;713.7;;;-146.1;100.0
45864;BME280;31579;52.354;16.974;2022-12-18T03:35:42;716.1;;;-146.1;100.0
45864;BME280;31579;52.354;16.974;2022-12-18T03:36:43;717.6;;;-146.1;100.0
45864;BME280;31579;52.354;16.974;2022-12-18T03:37:46;719.4;;;-146.1;100.0
45864;BME280;31579;52.354;16.974;2022-12-18T03:38:49;719.8;;;-146.1;100.0
45864;BME280;31579;52.354;16.974;2022-12-18T03:39:52;720.0;;;-146.1;100.0
45864;BME280;31579;52.354;16.974;2022-12-18T03:43:19;722.9;;;-146.1;100.0
45864;BME280;31579;52.354;16.974;2022-12-18T03:46:24;720.6;;;-146.1;100.0
45864;BME280;31579;52.354;16.974;2022-12-18T03:47:41;752.4;;;-146.1;100.0
45864;BME280;31579;52.354;16.974;2022-12-18T03:48:42;730.4;;;-146.1;100.0
45864;BME280;31579;52.354;16.974;2022-12-18T03:50:49;721.8;;;-146.1;100.0
45864;BME280;31579;52.354;16.974;2022-12-18T03:53:59;718.7;;;-146.1;100.0
45864;BME280;31579;52.354;16.974;2022-12-18T03:54:58;719.6;;;-146.1;100.0
45864;BME280;31579;52.354;16.974;2022-12-18T03:56:00;713.2;;;-146.1;100.0
45864;BME280;31579;52.354;16.974;2022-12-18T03:58:06;716.5;;;-146.1;100.0
45864;BME280;31579;52.354;16.974;2022-12-18T03:59:09;718.2;;;-146.1;100.0
45864;BME280;31579;52.354;16.974;2022-12-18T04:00:13;718.5;;;-146.1;100.0
45864;BME280;31579;52.354;16.974;2022-12-18T04:01:15;717.2;;;-146.1;100.0
45864;BME280;31579;52.354;16.974;2022-12-18T04:02:18;717.8;;;-146.1;100.0
45864;BME280;31579;52.354;16.974;2022-12-18T04:03:21;716.4;;;-146.1;100.0
45864;BME280;31579;52.354;16.974;2022-12-18T04:04:24;716.4;;;-146.1;100.0
45864;BME280;31579;52.354;16.974;2022-12-18T04:05:27;717.5;;;-146.1;100.0
45864;BME280;31579;52.354;16.974;2022-12-18T04:06:30;716.9;;;-146.1;100.0
45864;BME280;31579;52.354;16.974;2022-12-18T04:07:34;715.0;;;-146.1;100.0
45864;BME280;31579;52.354;16.974;2022-12-18T04:08:37;715.6;;;-146.1;100.0
45864;BME280;31579;52.354;16.974;2022-12-18T04:09:40;714.9;;;-146.1;100.0
45864;BME280;31579;52.354;16.974;2022-12-18T04:10:43;714.5;;;-146.1;100.0
45864;BME280;31579;52.354;16.974;2022-12-18T04:11:46;712.9;;;-146.1;100.0
45864;BME280;31579;52.354;16.974;2022-12-18T04:12:50;711.6;;;-146.1;100.0
45864;BME280;31579;52.354;16.974;2022-12-18T04:14:56;712.2;;;-146.1;100.0
45864;BME280;31579;52.354;16.974;2022-12-18T04:15:59;712.3;;;-146.1;100.0
45864;BME280;31579;52.354;16.974;2022-12-18T04:17:02;710.5;;;-146.1;100.0
45864;BME280;31579;52.354;16.974;2022-12-18T04:18:05;711.4;;;-146.1;100.0
45864;BME280;31579;52.354;16.974;2022-12-18T04:19:08;711.7;;;-146.1;100.0
45864;BME280;31579;52.354;16.974;2022-12-18T04:20:11;711.6;;;-146.1;100.0
45864;BME280;31579;52.354;16.974;2022-12-18T04:21:14;711.7;;;-146.1;100.0
45864;BME280;31579;52.354;16.974;2022-12-18T04:22:17;710.8;;;-146.1;100.0
45864;BME280;31579;52.354;16.974;2022-12-18T04:23:20;712.2;;;-146.1;100.0
45864;BME280;31579;52.354;16.974;2022-12-18T04:24:23;712.3;;;-146.1;100.0
45864;BME280;31579;52.354;16.974;2022-12-18T04:25:26;712.1;;;-146.1;100.0
45864;BME280;31579;52.354;16.974;2022-12-18T04:26:29;714.0;;;-146.1;100.0
45864;BME280;31579;52.354;16.974;2022-12-18T04:27:32;713.5;;;-146.1;100.0
45864;BME280;31579;52.354;16.974;2022-12-18T04:28:35;715.0;;;-146.1;100.0
45864;BME280;31579;52.354;16.974;2022-12-18T04:29:38;715.0;;;-146.1;100.0
45864;BME280;31579;52.354;16.974;2022-12-18T04:30:41;714.5;;;-146.1;100.0
45864;BME280;31579;52.354;16.974;2022-12-18T04:31:44;714.3;;;-146.1;100.0
45864;BME280;31579;52.354;16.974;2022-12-18T04:32:47;715.3;;;-146.1;100.0
45864;BME280;31579;52.354;16.974;2022-12-18T04:33:50;714.8;;;-146.1;100.0
45864;BME280;31579;52.354;16.974;2022-12-18T04:34:53;714.6;;;-146.1;100.0
45864;BME280;31579;52.354;16.974;2022-12-18T04:35:56;714.9;;;-146.1;100.0
45864;BME280;31579;52.354;16.974;2022-12-18T04:36:59;715.7;;;-146.1;100.0
45864;BME280;31579;52.354;16.974;2022-12-18T04:38:02;716.3;;;-146.1;100.0
45864;BME280;31579;52.354;16.974;2022-12-18T04:39:05;714.8;;;-146.1;100.0
45864;BME280;31579;52.354;16.974;2022-12-18T04:40:08;715.6;;;-146.1;100.0
45864;BME280;31579;52.354;16.974;2022-12-18T04:41:11;716.0;;;-146.1;100.0
45864;BME280;31579;52.354;16.974;2022-12-18T04:42:14;716.9;;;-146.1;100.0
45864;BME280;31579;52.354;16.974;2022-12-18T04:43:17;715.5;;;-146.1;100.0
45864;BME280;31579;52.354;16.974;2022-12-18T04:44:21;715.6;;;-146.1;100.0
45864;BME280;31579;52.354;16.974;2022-12-18T04:45:24;716.8;;;-146.1;100.0
45864;BME280;31579;52.354;16.974;2022-12-18T04:46:27;715.2;;;-146.1;100.0
45864;BME280;31579;52.354;16.974;2022-12-18T04:47:30;715.6;;;-146.1;100.0
45864;BME280;31579;52.354;16.974;2022-12-18T04:48:33;717.8;;;-146.1;100.0
45864;BME280;31579;52.354;16.974;2022-12-18T04:49:36;718.2;;;-146.1;100.0
45864;BME280;31579;52.354;16.974;2022-12-18T04:50:39;717.1;;;-146.1;100.0
45864;BME280;31579;52.354;16.974;2022-12-18T04:51:42;718.1;;;-146.1;100.0
45864;BME280;31579;52.354;16.974;2022-12-18T04:52:45;716.6;;;-146.1;100.0
45864;BME280;31579;52.354;16.974;2022-12-18T04:53:49;717.5;;;-146.1;100.0
45864;BME280;31579;52.354;16.974;2022-12-18T04:54:52;716.9;;;-146.1;100.0
45864;BME280;31579;52.354;16.974;2022-12-18T04:56:58;715.8;;;-146.1;100.0
45864;BME280;31579;52.354;16.974;2022-12-18T04:58:00;710.9;;;-146.1;100.0
45864;BME280;31579;52.354;16.974;2022-12-18T04:59:04;707.1;;;-146.1;100.0
45864;BME280;31579;52.354;16.974;2022-12-18T05:00:07;714.1;;;-146.1;100.0
45864;BME280;31579;52.354;16.974;2022-12-18T05:01:12;716.5;;;-146.1;100.0
45864;BME280;31579;52.354;16.974;2022-12-18T05:02:14;717.8;;;-146.1;100.0
45864;BME280;31579;52.354;16.974;2022-12-18T05:03:17;717.2;;;-146.1;100.0
45864;BME280;31579;52.354;16.974;2022-12-18T05:04:20;716.1;;;-146.1;100.0
45864;BME280;31579;52.354;16.974;2022-12-18T05:05:23;717.4;;;-146.1;100.0
45864;BME280;31579;52.354;16.974;2022-12-18T05:06:26;717.1;;;-146.1;100.0
45864;BME280;31579;52.354;16.974;2022-12-18T05:07:29;715.9;;;-146.1;100.0
45864;BME280;31579;52.354;16.974;2022-12-18T05:08:32;716.8;;;-146.1;100.0
45864;BME280;31579;52.354;16.974;2022-12-18T05:09:35;716.5;;;-146.1;100.0
45864;BME280;31579;52.354;16.974;2022-12-18T05:10:38;715.5;;;-146.1;100.0
45864;BME280;31579;52.354;16.974;2022-12-18T05:11:41;716.3;;;-146.1;100.0
45864;BME280;31579;52.354;16.974;2022-12-18T05:12:44;716.9;;;-146.1;100.0
45864;BME280;31579;52.354;16.974;2022-12-18T05:13:48;715.9;;;-146.1;100.0
45864;BME280;31579;52.354;16.974;2022-12-18T05:14:51;715.4;;;-146.1;100.0
45864;BME280;31579;52.354;16.974;2022-12-18T05:15:54;716.1;;;-146.1;100.0
45864;BME280;31579;52.354;16.974;2022-12-18T05:16:57;713.2;;;-146.1;100.0
45864;BME280;31579;52.354;16.974;2022-12-18T05:18:02;723.7;;;-146.1;100.0
45864;BME280;31579;52.354;16.974;2022-12-18T05:19:04;723.9;;;-146.1;100.0
45864;BME280;31579;52.354;16.974;2022-12-18T05:20:07;715.1;;;-146.1;100.0
45864;BME280;31579;52.354;16.974;2022-12-18T05:21:10;710.7;;;-146.1;100.0
45864;BME280;31579;52.354;16.974;2022-12-18T05:22:13;709.4;;;-146.1;100.0
45864;BME280;31579;52.354;16.974;2022-12-18T05:23:16;709.0;;;-146.1;100.0
45864;BME280;31579;52.354;16.974;2022-12-18T05:24:19;707.8;;;-146.1;100.0
45864;BME280;31579;52.354;16.974;2022-12-18T05:25:22;706.3;;;-146.1;100.0
45864;BME280;31579;52.354;16.974;2022-12-18T05:26:25;705.3;;;-146.1;100.0
45864;BME280;31579;52.354;16.974;2022-12-18T05:27:28;707.3;;;-146.1;100.0
45864;BME280;31579;52.354;16.974;2022-12-18T05:28:32;706.6;;;-146.1;100.0
45864;BME280;31579;52.354;16.974;2022-12-18T05:29:34;705.7;;;-146.1;100.0
45864;BME280;31579;52.354;16.974;2022-12-18T05:30:37;705.9;;;-146.1;100.0
45864;BME280;31579;52.354;16.974;2022-12-18T05:31:40;706.1;;;-146.1;100.0
45864;BME280;31579;52.354;16.974;2022-12-18T05:32:43;708.2;;;-146.1;100.0
45864;BME280;31579;52.354;16.974;2022-12-18T05:33:46;707.3;;;-146.1;100.0
45864;BME280;31579;52.354;16.974;2022-12-18T05:34:49;708.0;;;-146.1;100.0
45864;BME280;31579;52.354;16.974;2022-12-18T05:35:53;707.7;;;-146.1;100.0
45864;BME280;31579;52.354;16.974;2022-12-18T05:36:55;709.8;;;-146.1;100.0
45864;BME280;31579;52.354;16.974;2022-12-18T05:37:58;710.0;;;-146.1;100.0
45864;BME280;31579;52.354;16.974;2022-12-18T05:39:00;703.9;;;-146.1;100.0
45864;BME280;31579;52.354;16.974;2022-12-18T05:40:03;701.9;;;-146.1;100.0
45864;BME280;31579;52.354;16.974;2022-12-18T05:41:06;708.4;;;-146.1;100.0
45864;BME280;31579;52.354;16.974;2022-12-18T05:42:09;710.8;;;-146.1;100.0
45864;BME280;31579;52.354;16.974;2022-12-18T05:43:12;711.0;;;-146.1;100.0
45864;BME280;31579;52.354;16.974;2022-12-18T05:44:15;711.4;;;-146.1;100.0
45864;BME280;31579;52.354;16.974;2022-12-18T05:45:18;710.2;;;-146.1;100.0
45864;BME280;31579;52.354;16.974;2022-12-18T05:46:21;710.2;;;-146.1;100.0
45864;BME280;31579;52.354;16.974;2022-12-18T05:47:24;708.5;;;-146.1;100.0
45864;BME280;31579;52.354;16.974;2022-12-18T05:48:27;709.9;;;-146.1;100.0
45864;BME280;31579;52.354;16.974;2022-12-18T05:49:30;710.6;;;-146.1;100.0
45864;BME280;31579;52.354;16.974;2022-12-18T05:50:36;707.7;;;-146.1;100.0
45864;BME280;31579;52.354;16.974;2022-12-18T05:51:37;710.4;;;-146.1;100.0
45864;BME280;31579;52.354;16.974;2022-12-18T05:52:40;709.3;;;-146.1;100.0
45864;BME280;31579;52.354;16.974;2022-12-18T05:53:43;708.8;;;-146.1;100.0
45864;BME280;31579;52.354;16.974;2022-12-18T05:54:47;707.6;;;-146.1;100.0
45864;BME280;31579;52.354;16.974;2022-12-18T05:55:50;710.8;;;-146.1;100.0
45864;BME280;31579;52.354;16.974;2022-12-18T05:56:53;711.7;;;-146.1;100.0
45864;BME280;31579;52.354;16.974;2022-12-18T05:57:56;712.1;;;-146.1;100.0
45864;BME280;31579;52.354;16.974;2022-12-18T05:58:59;710.8;;;-146.1;100.0
45864;BME280;31579;52.354;16.974;2022-12-18T06:00:03;712.5;;;-146.1;100.0
45864;BME280;31579;52.354;16.974;2022-12-18T06:01:11;712.5;;;-146.1;100.0
45864;BME280;31579;52.354;16.974;2022-12-18T06:02:08;714.7;;;-146.1;100.0
45864;BME280;31579;52.354;16.974;2022-12-18T06:03:11;715.0;;;-146.1;100.0
45864;BME280;31579;52.354;16.974;2022-12-18T06:04:14;714.4;;;-146.1;100.0
45864;BME280;31579;52.354;16.974;2022-12-18T06:05:17;715.6;;;-146.1;100.0
45864;BME280;31579;52.354;16.974;2022-12-18T06:06:21;716.5;;;-146.1;100.0
45864;BME280;31579;52.354;16.974;2022-12-18T06:07:23;719.1;;;-146.1;100.0
45864;BME280;31579;52.354;16.974;2022-12-18T06:08:26;717.8;;;-146.1;100.0
45864;BME280;31579;52.354;16.974;2022-12-18T06:09:29;717.5;;;-146.1;100.0
45864;BME280;31579;52.354;16.974;2022-12-18T06:10:32;718.9;;;-146.1;100.0
45864;BME280;31579;52.354;16.974;2022-12-18T06:11:35;719.0;;;-146.1;100.0
45864;BME280;31579;52.354;16.974;2022-12-18T06:12:38;720.5;;;-146.1;100.0
45864;BME280;31579;52.354;16.974;2022-12-18T06:13:41;720.6;;;-146.1;100.0
45864;BME280;31579;52.354;16.974;2022-12-18T06:14:44;721.1;;;-146.1;100.0
45864;BME280;31579;52.354;16.974;2022-12-18T06:15:47;720.8;;;-146.1;100.0
45864;BME280;31579;52.354;16.974;2022-12-18T06:16:50;720.1;;;-146.1;100.0
45864;BME280;31579;52.354;16.974;2022-12-18T06:17:53;721.4;;;-146.1;100.0